createdAt,value
2023-01-30T00:00:39.265Z,13.05
2023-01-30T00:01:39.309Z,12.57
2023-01-30T00:02:39.373Z,13.33
2023-01-30T00:03:39.407Z,13.72
2023-01-30T00:04:39.517Z,12.74
2023-01-30T00:05:39.470Z,12.04
2023-01-30T00:06:39.541Z,12.67
2023-01-30T00:07:39.554Z,12.55
2023-01-30T00:08:39.607Z,11.71
2023-01-30T00:09:39.648Z,12.29
2023-01-30T00:10:39.701Z,12.71
2023-01-30T00:11:39.735Z,12.92
2023-01-30T00:12:39.771Z,13.82
2023-01-30T00:13:39.787Z,12.39
2023-01-30T00:14:39.822Z,11.86
2023-01-30T00:15:39.905Z,12.15
2023-01-30T00:16:39.927Z,12.03
2023-01-30T00:17:39.920Z,12.53
2023-01-30T00:18:40.013Z,11.28
2023-01-30T00:19:39.964Z,12.06
2023-01-30T00:20:39.961Z,12.14
2023-01-30T00:21:40.006Z,12.09
2023-01-30T00:22:44.206Z,13.34
2023-01-30T00:23:41.011Z,12.42
2023-01-30T00:24:40.112Z,12.19
2023-01-30T00:25:40.195Z,11.55
2023-01-30T00:26:40.065Z,10.99
2023-01-30T00:27:40.002Z,11.11
2023-01-30T00:28:39.999Z,12.98
2023-01-30T00:51:40.491Z,11.10
2023-01-30T00:52:40.524Z,11.38
2023-01-30T00:53:40.588Z,11.07
2023-01-30T00:54:40.641Z,10.68
2023-01-30T00:55:40.681Z,10.88
2023-01-30T00:57:40.763Z,10.39
2023-01-30T00:58:40.803Z,10.71
2023-01-30T00:59:40.883Z,10.00
2023-01-30T01:00:40.884Z,10.36
2023-01-30T01:01:41.027Z,10.43
2023-01-30T01:02:41.006Z,10.59
2023-01-30T01:03:41.040Z,10.55
2023-01-30T01:04:41.063Z,11.28
2023-01-30T01:05:41.089Z,11.42
2023-01-30T01:06:41.161Z,10.31
2023-01-30T01:07:41.180Z,11.13
2023-01-30T01:08:41.216Z,11.20
2023-01-30T01:09:41.249Z,10.77
2023-01-30T01:10:41.296Z,10.04
2023-01-30T01:11:41.300Z,10.77
2023-01-30T01:12:41.348Z,10.52
2023-01-30T01:13:41.379Z,10.16
2023-01-30T01:15:41.435Z,10.22
2023-01-30T01:16:41.499Z,10.89
2023-01-30T01:17:41.456Z,9.83
2023-01-30T01:18:41.517Z,10.68
2023-01-30T01:19:41.533Z,10.35
2023-01-30T01:20:41.558Z,10.83
2023-01-30T01:22:41.614Z,10.99
2023-01-30T01:23:41.627Z,9.79
2023-01-30T01:24:41.661Z,9.84
2023-01-30T01:25:41.665Z,9.52
2023-01-30T01:26:41.763Z,10.11
2023-01-30T01:27:41.729Z,9.58
2023-01-30T01:28:41.765Z,9.98
2023-01-30T01:29:41.775Z,9.50
2023-01-30T01:30:41.761Z,10.22
2023-01-30T01:31:41.908Z,10.36
2023-01-30T01:32:41.795Z,10.26
2023-01-30T01:33:41.820Z,9.35
2023-01-30T01:34:41.858Z,10.29
2023-01-30T01:35:41.836Z,9.69
2023-01-30T01:36:53.291Z,10.39
2023-01-30T01:37:42.849Z,10.05
2023-01-30T01:38:41.861Z,9.86
2023-01-30T01:39:41.841Z,10.41
2023-01-30T01:40:41.844Z,9.65
2023-01-30T01:41:41.846Z,10.63
2023-01-30T01:42:41.809Z,10.32
2023-01-30T01:43:41.821Z,8.76
2023-01-30T01:44:41.824Z,11.05
2023-01-30T01:45:41.814Z,9.86
2023-01-30T01:46:41.800Z,9.40
2023-01-30T01:47:41.848Z,9.62
2023-01-30T01:48:41.822Z,9.75
2023-01-30T01:49:41.800Z,9.10
2023-01-30T01:50:41.799Z,8.77
2023-01-30T01:51:41.763Z,9.60
2023-01-30T01:52:41.772Z,8.88
2023-01-30T01:53:41.749Z,9.32
2023-01-30T01:54:41.758Z,8.96
2023-01-30T01:55:41.773Z,9.41
2023-01-30T01:56:41.751Z,9.66
2023-01-30T01:57:41.747Z,9.31
2023-01-30T01:58:41.723Z,8.84
2023-01-30T01:59:41.737Z,9.45
2023-01-30T02:00:41.745Z,9.89
2023-01-30T02:01:41.738Z,9.15
2023-01-30T02:02:41.744Z,9.02
2023-01-30T02:03:41.716Z,9.04
2023-01-30T02:04:41.712Z,9.23
2023-01-30T02:05:41.682Z,8.67
2023-01-30T02:06:41.662Z,9.07
2023-01-30T02:09:41.673Z,9.14
2023-01-30T02:10:41.674Z,9.26
2023-01-30T02:11:41.676Z,7.94
2023-01-30T02:12:41.653Z,8.89
2023-01-30T02:13:41.637Z,9.08
2023-01-30T02:14:41.640Z,9.28
2023-01-30T02:15:41.635Z,9.15
2023-01-30T02:17:41.614Z,9.65
2023-01-30T02:18:41.590Z,9.28
2023-01-30T02:19:41.646Z,8.94
2023-01-30T02:20:41.578Z,9.55
2023-01-30T02:21:41.636Z,9.21
2023-01-30T02:22:41.612Z,9.42
2023-01-30T02:23:41.660Z,9.21
2023-01-30T02:24:41.670Z,9.58
2023-01-30T02:25:41.639Z,8.66
2023-01-30T02:26:41.742Z,8.59
2023-01-30T02:27:41.718Z,9.06
2023-01-30T02:28:41.768Z,8.67
2023-01-30T02:29:41.767Z,9.42
2023-01-30T02:30:41.810Z,9.27
2023-01-30T02:31:41.815Z,9.19
2023-01-30T02:32:41.806Z,9.22
2023-01-30T02:33:41.811Z,9.48
2023-01-30T02:34:41.820Z,8.84
2023-01-30T02:35:41.913Z,8.42
2023-01-30T02:36:41.915Z,8.80
2023-01-30T02:37:41.979Z,9.42
2023-01-30T02:38:42.000Z,8.78
2023-01-30T02:39:42.032Z,9.21
2023-01-30T02:40:42.103Z,8.92
2023-01-30T02:41:42.127Z,8.86
2023-01-30T02:42:42.163Z,8.72
2023-01-30T02:43:42.222Z,9.27
2023-01-30T02:44:42.223Z,8.49
2023-01-30T02:45:42.351Z,9.17
2023-01-30T02:46:42.350Z,9.31
2023-01-30T02:47:42.378Z,8.73
2023-01-30T02:48:42.462Z,7.94
2023-01-30T02:49:42.519Z,8.62
2023-01-30T02:50:42.580Z,8.81
2023-01-30T02:51:42.624Z,9.11
2023-01-30T02:52:42.721Z,8.11
2023-01-30T02:53:42.773Z,8.33
2023-01-30T02:54:42.776Z,8.21
2023-01-30T02:55:42.854Z,8.30
2023-01-30T02:56:42.900Z,7.91
2023-01-30T02:57:43.008Z,8.60
2023-01-30T02:58:43.055Z,8.40
2023-01-30T02:59:43.089Z,8.77
2023-01-30T03:00:43.174Z,9.20
2023-01-30T03:01:43.231Z,8.69
2023-01-30T03:02:43.344Z,9.88
2023-01-30T03:03:43.336Z,8.51
2023-01-30T03:04:43.400Z,8.70
2023-01-30T03:05:43.468Z,8.38
2023-01-30T03:06:43.509Z,8.62
2023-01-30T03:07:43.589Z,8.09
2023-01-30T03:08:43.627Z,8.26
2023-01-30T03:09:43.673Z,8.08
2023-01-30T03:10:43.733Z,8.56
2023-01-30T03:11:43.805Z,8.05
2023-01-30T03:12:43.869Z,8.70
2023-01-30T03:13:43.937Z,7.95
2023-01-30T03:14:43.979Z,8.92
2023-01-30T03:15:44.068Z,8.51
2023-01-30T03:16:44.076Z,8.47
2023-01-30T03:17:44.158Z,8.50
2023-01-30T03:18:44.228Z,9.81
2023-01-30T03:19:44.250Z,8.56
2023-01-30T03:20:44.322Z,8.79
2023-01-30T03:21:44.359Z,8.71
2023-01-30T03:22:44.473Z,8.28
2023-01-30T03:23:44.505Z,8.79
2023-01-30T03:24:44.564Z,8.80
2023-01-30T03:25:44.628Z,9.03
2023-01-30T03:26:44.741Z,8.56
2023-01-30T03:27:44.732Z,8.73
2023-01-30T03:29:44.851Z,9.23
2023-01-30T03:30:44.958Z,8.42
2023-01-30T03:31:45.054Z,8.32
2023-01-30T03:32:45.050Z,9.11
2023-01-30T03:33:45.120Z,8.01
2023-01-30T03:34:45.210Z,8.64
2023-01-30T03:35:45.223Z,8.28
2023-01-30T03:36:45.282Z,8.79
2023-01-30T03:37:45.359Z,8.63
2023-01-30T03:38:45.404Z,8.24
2023-01-30T03:39:45.472Z,9.22
2023-01-30T04:09:47.165Z,8.25
2023-01-30T04:10:47.177Z,8.43
2023-01-30T04:11:47.225Z,8.71
2023-01-30T04:12:47.256Z,8.23
2023-01-30T04:13:47.317Z,8.31
2023-01-30T04:14:47.312Z,7.96
2023-01-30T04:15:47.385Z,8.29
2023-01-30T04:16:47.444Z,7.33
2023-01-30T04:17:47.467Z,8.23
2023-01-30T04:18:47.438Z,8.26
2023-01-30T04:19:47.484Z,9.20
2023-01-30T04:20:47.530Z,8.60
2023-01-30T04:21:47.595Z,7.78
2023-01-30T04:22:47.645Z,8.40
2023-01-30T04:23:47.701Z,7.80
2023-01-30T04:24:47.768Z,8.82
2023-01-30T04:25:47.789Z,8.35
2023-01-30T04:26:47.902Z,8.47
2023-01-30T04:27:47.876Z,9.29
2023-01-30T04:28:47.959Z,8.32
2023-01-30T04:29:47.968Z,8.43
2023-01-30T04:30:48.044Z,7.78
2023-01-30T04:31:48.081Z,8.18
2023-01-30T04:32:48.132Z,8.13
2023-01-30T04:33:48.169Z,8.16
2023-01-30T04:34:48.247Z,8.53
2023-01-30T04:35:48.260Z,8.08
2023-01-30T04:36:48.339Z,8.19
2023-01-30T04:37:48.375Z,8.92
2023-01-30T04:38:48.423Z,8.37
2023-01-30T04:39:48.505Z,8.54
2023-01-30T04:40:48.539Z,9.41
2023-01-30T04:41:48.613Z,8.74
2023-01-30T04:42:48.656Z,8.48
2023-01-30T04:43:48.733Z,8.19
2023-01-30T04:44:48.772Z,8.59
2023-01-30T04:45:48.821Z,8.45
2023-01-30T04:46:48.960Z,8.12
2023-01-30T05:04:49.972Z,7.91
2023-01-30T05:05:50.050Z,8.19
2023-01-30T05:06:50.084Z,8.85
2023-01-30T05:07:50.136Z,9.00
2023-01-30T05:08:50.124Z,8.66
2023-01-30T05:09:50.181Z,8.04
2023-01-30T05:10:50.214Z,8.18
2023-01-30T05:11:50.235Z,8.69
2023-01-30T05:12:50.193Z,8.83
2023-01-30T05:13:50.237Z,7.65
2023-01-30T05:14:50.277Z,8.71
2023-01-30T05:15:50.290Z,9.20
2023-01-30T05:16:50.312Z,8.56
2023-01-30T05:17:50.288Z,7.82
2023-01-30T05:18:50.311Z,8.56
2023-01-30T05:19:50.315Z,8.75
2023-01-30T05:20:50.356Z,9.24
2023-01-30T05:21:50.337Z,8.68
2023-01-30T05:22:50.340Z,8.88
2023-01-30T05:23:50.327Z,8.42
2023-01-30T05:30:50.473Z,9.03
2023-01-30T05:31:50.405Z,7.85
2023-01-30T05:32:50.383Z,8.39
2023-01-30T05:33:50.394Z,9.01
2023-01-30T05:34:50.377Z,9.26
2023-01-30T05:35:50.390Z,8.37
2023-01-30T05:36:50.407Z,8.57
2023-01-30T05:37:50.402Z,8.36
2023-01-30T05:38:50.435Z,8.50
2023-01-30T05:39:50.424Z,8.50
2023-01-30T05:40:50.424Z,8.96
2023-01-30T05:41:50.387Z,8.66
2023-01-30T05:42:50.393Z,8.40
2023-01-30T05:43:50.432Z,8.65
2023-01-30T05:44:50.461Z,8.56
2023-01-30T05:45:50.428Z,8.03
2023-01-30T05:46:50.513Z,8.91
2023-01-30T05:47:50.457Z,8.48
2023-01-30T05:48:50.451Z,9.07
2023-01-30T05:49:50.479Z,9.01
2023-01-30T05:50:50.474Z,8.20
2023-01-30T05:51:51.564Z,8.86
2023-01-30T05:52:50.467Z,9.02
2023-01-30T05:53:50.484Z,9.23
2023-01-30T05:54:50.481Z,8.29
2023-01-30T05:55:50.480Z,8.65
2023-01-30T06:00:57.516Z,8.16
2023-01-30T06:01:50.520Z,8.28
2023-01-30T06:02:50.583Z,9.26
2023-01-30T06:03:50.558Z,9.09
2023-01-30T06:04:50.493Z,8.76
2023-01-30T06:05:50.511Z,8.75
2023-01-30T06:06:50.514Z,8.07
2023-01-30T06:07:50.468Z,9.18
2023-01-30T06:08:50.549Z,8.36
2023-01-30T06:09:50.487Z,9.95
2023-01-30T06:10:50.464Z,8.64
2023-01-30T06:11:51.417Z,8.34
2023-01-30T06:12:50.465Z,8.29
2023-01-30T06:13:50.488Z,9.22
2023-01-30T06:14:50.463Z,8.26
2023-01-30T06:15:50.441Z,8.59
2023-01-30T06:16:50.461Z,9.03
2023-01-30T06:17:50.452Z,9.10
2023-01-30T06:18:50.459Z,8.93
2023-01-30T06:19:50.454Z,8.48
2023-01-30T06:20:50.440Z,9.08
2023-01-30T06:21:50.401Z,8.76
2023-01-30T06:22:50.435Z,8.08
2023-01-30T06:23:50.368Z,8.56
2023-01-30T06:24:50.387Z,8.95
2023-01-30T06:25:50.360Z,8.37
2023-01-30T06:26:50.431Z,8.86
2023-01-30T06:27:50.404Z,8.19
2023-01-30T06:28:50.376Z,8.56
2023-01-30T06:29:50.388Z,8.89
2023-01-30T06:30:50.403Z,8.89
2023-01-30T06:31:50.371Z,8.23
2023-01-30T06:32:50.353Z,8.02
2023-01-30T06:33:50.337Z,8.62
2023-01-30T06:34:50.357Z,8.35
2023-01-30T06:35:50.343Z,8.88
2023-01-30T06:36:50.338Z,9.05
2023-01-30T06:37:50.335Z,8.89
2023-01-30T06:38:50.350Z,9.25
2023-01-30T06:39:50.335Z,9.81
2023-01-30T06:40:50.324Z,9.80
2023-01-30T06:41:50.284Z,9.45
2023-01-30T06:42:50.338Z,9.56
2023-01-30T06:43:50.381Z,11.10
2023-01-30T06:44:50.299Z,13.55
2023-01-30T06:45:57.319Z,13.80
2023-01-30T06:46:50.305Z,11.31
2023-01-30T06:47:50.242Z,13.17
2023-01-30T06:48:50.267Z,12.69
2023-01-30T06:49:50.245Z,13.48
2023-01-30T06:50:50.267Z,12.59
2023-01-30T06:51:50.228Z,13.55
2023-01-30T06:52:50.243Z,12.63
2023-01-30T06:53:52.392Z,11.95
2023-01-30T06:54:50.220Z,11.12
2023-01-30T06:55:50.276Z,12.91
2023-01-30T06:56:50.224Z,12.68
2023-01-30T06:57:50.190Z,10.91
2023-01-30T06:58:50.166Z,10.45
2023-01-30T06:59:50.180Z,10.81
2023-01-30T07:00:50.179Z,11.06
2023-01-30T07:01:50.150Z,10.10
2023-01-30T07:02:50.152Z,11.62
2023-01-30T07:03:50.188Z,10.48
2023-01-30T07:04:50.137Z,9.91
2023-01-30T07:05:50.142Z,10.23
2023-01-30T07:06:50.123Z,10.17
2023-01-30T07:07:50.136Z,10.24
2023-01-30T07:08:50.147Z,9.31
2023-01-30T07:10:02.289Z,8.61
2023-01-30T07:10:51.109Z,8.62
2023-01-30T07:11:50.074Z,8.89
2023-01-30T07:12:50.091Z,9.71
2023-01-30T07:13:50.144Z,8.64
2023-01-30T07:14:50.077Z,8.04
2023-01-30T07:15:50.091Z,7.98
2023-01-30T07:16:50.076Z,7.51
2023-01-30T07:17:50.036Z,7.85
2023-01-30T07:18:50.069Z,8.10
2023-01-30T07:19:50.053Z,7.40
2023-01-30T07:20:50.117Z,7.37
2023-01-30T07:21:50.113Z,6.99
2023-01-30T07:22:50.170Z,7.50
2023-01-30T07:23:50.157Z,7.81
2023-01-30T07:24:50.208Z,6.72
2023-01-30T07:25:50.207Z,7.14
2023-01-30T07:26:50.283Z,6.64
2023-01-30T07:27:50.259Z,6.67
2023-01-30T07:28:50.324Z,6.15
2023-01-30T07:29:51.901Z,6.35
2023-01-30T07:30:51.384Z,8.52
2023-01-30T07:31:50.397Z,6.95
2023-01-30T07:32:50.328Z,6.78
2023-01-30T07:33:50.456Z,7.20
2023-01-30T07:34:50.313Z,6.22
2023-01-30T07:35:50.316Z,6.45
2023-01-30T07:36:50.274Z,7.58
2023-01-30T07:37:50.286Z,7.63
2023-01-30T07:38:50.447Z,6.86
2023-01-30T07:39:50.283Z,7.09
2023-01-30T07:40:50.300Z,7.50
2023-01-30T07:41:50.259Z,8.26
2023-01-30T07:42:50.266Z,8.30
2023-01-30T07:43:50.557Z,7.25
2023-01-30T07:44:50.325Z,7.11
2023-01-30T07:45:50.282Z,7.45
2023-01-30T07:46:50.288Z,6.87
2023-01-30T07:47:50.226Z,7.22
2023-01-30T07:48:50.249Z,7.04
2023-01-30T07:49:50.316Z,7.25
2023-01-30T07:50:50.342Z,6.08
2023-01-30T07:51:50.328Z,6.74
2023-01-30T07:52:50.397Z,6.24
2023-01-30T07:53:50.357Z,6.48
2023-01-30T07:54:50.401Z,5.74
2023-01-30T07:55:50.414Z,6.01
2023-01-30T07:56:50.426Z,7.21
2023-01-30T07:57:50.442Z,6.43
2023-01-30T07:58:50.471Z,6.57
2023-01-30T07:59:50.489Z,6.19
2023-01-30T08:00:50.514Z,5.99
2023-01-30T08:01:50.524Z,5.72
2023-01-30T08:02:50.546Z,6.19
2023-01-30T08:03:50.581Z,5.97
2023-01-30T08:04:50.642Z,5.79
2023-01-30T08:05:50.660Z,5.67
2023-01-30T08:06:50.637Z,5.77
2023-01-30T08:07:50.618Z,6.06
2023-01-30T08:08:50.659Z,5.88
2023-01-30T08:09:50.646Z,6.13
2023-01-30T08:10:50.698Z,6.45
2023-01-30T08:11:50.725Z,7.03
2023-01-30T08:12:50.795Z,7.53
2023-01-30T08:13:50.819Z,7.22
2023-01-30T08:14:50.919Z,7.16
2023-01-30T08:15:50.968Z,8.16
2023-01-30T08:16:51.050Z,7.88
2023-01-30T08:17:50.986Z,8.85
2023-01-30T08:18:50.991Z,7.80
2023-01-30T08:19:51.108Z,8.98
2023-01-30T08:20:51.041Z,8.58
2023-01-30T08:21:51.039Z,8.36
2023-01-30T08:22:51.092Z,7.75
2023-01-30T08:23:51.091Z,8.39
2023-01-30T08:24:51.129Z,8.60
2023-01-30T08:25:51.187Z,8.75
2023-01-30T08:26:51.177Z,9.11
2023-01-30T08:27:51.229Z,8.44
2023-01-30T08:28:51.230Z,8.89
2023-01-30T08:29:51.304Z,8.57
2023-01-30T08:30:51.415Z,9.24
2023-01-30T08:31:51.311Z,9.22
2023-01-30T08:32:51.375Z,9.06
2023-01-30T08:33:51.435Z,9.44
2023-01-30T08:34:51.635Z,10.58
2023-01-30T08:35:51.489Z,13.61
2023-01-30T08:36:51.524Z,14.81
2023-01-30T08:37:51.525Z,15.68
2023-01-30T08:38:51.576Z,16.26
2023-01-30T08:39:51.623Z,14.88
2023-01-30T08:40:51.619Z,15.71
2023-01-30T08:41:51.625Z,15.10
2023-01-30T08:42:51.690Z,14.97
2023-01-30T08:43:51.707Z,14.93
2023-01-30T08:44:51.710Z,15.02
2023-01-30T08:45:51.761Z,15.57
2023-01-30T08:46:51.769Z,15.31
2023-01-30T08:47:51.795Z,14.84
2023-01-30T08:48:51.777Z,13.41
2023-01-30T08:49:51.897Z,11.57
2023-01-30T08:50:51.854Z,12.14
2023-01-30T08:51:51.866Z,12.04
2023-01-30T08:52:51.906Z,12.02
2023-01-30T08:53:51.967Z,11.51
2023-01-30T08:54:52.027Z,12.11
2023-01-30T08:55:52.023Z,11.85
2023-01-30T08:56:52.001Z,10.75
2023-01-30T08:57:52.043Z,11.57
2023-01-30T08:58:52.127Z,10.18
2023-01-30T08:59:52.121Z,10.90
2023-01-30T09:00:52.259Z,10.75
2023-01-30T09:01:52.237Z,11.71
2023-01-30T09:02:52.328Z,12.89
2023-01-30T09:03:52.342Z,11.59
2023-01-30T09:04:52.387Z,11.68
2023-01-30T09:05:52.431Z,12.48
2023-01-30T09:06:52.508Z,11.90
2023-01-30T09:07:52.639Z,12.54
2023-01-30T09:08:52.614Z,12.10
2023-01-30T09:09:53.006Z,11.60
2023-01-30T09:10:52.743Z,12.11
2023-01-30T09:11:52.790Z,13.26
2023-01-30T09:12:52.826Z,11.48
2023-01-30T09:13:52.835Z,10.57
2023-01-30T09:14:52.874Z,11.76
2023-01-30T09:15:52.920Z,11.48
2023-01-30T09:16:52.969Z,11.81
2023-01-30T09:17:52.986Z,11.60
2023-01-30T09:18:53.034Z,11.74
2023-01-30T09:19:53.088Z,11.39
2023-01-30T09:20:53.824Z,14.27
2023-01-30T09:21:53.143Z,13.54
2023-01-30T09:22:53.211Z,13.28
2023-01-30T09:23:53.159Z,13.03
2023-01-30T09:24:53.221Z,12.26
2023-01-30T09:25:53.213Z,11.55
2023-01-30T09:26:53.259Z,10.87
2023-01-30T09:27:53.308Z,11.14
2023-01-30T09:28:53.340Z,10.69
2023-01-30T09:29:53.419Z,10.15
2023-01-30T09:30:53.569Z,10.73
2023-01-30T09:31:53.468Z,9.46
2023-01-30T09:32:53.472Z,10.16
2023-01-30T09:33:53.508Z,10.26
2023-01-30T09:34:54.018Z,9.96
2023-01-30T09:35:53.590Z,9.48
2023-01-30T09:36:53.663Z,9.85
2023-01-30T09:37:53.766Z,8.74
2023-01-30T09:38:53.776Z,9.34
2023-01-30T09:39:53.845Z,9.93
2023-01-30T09:40:54.044Z,9.37
2023-01-30T09:41:53.817Z,8.42
2023-01-30T09:42:53.844Z,8.39
2023-01-30T09:43:53.867Z,8.35
2023-01-30T09:44:53.857Z,9.31
2023-01-30T09:45:53.904Z,8.53
2023-01-30T09:46:53.864Z,8.61
2023-01-30T09:47:53.879Z,9.27
2023-01-30T09:48:53.891Z,8.67
2023-01-30T09:49:53.965Z,9.99
2023-01-30T09:50:53.993Z,8.76
2023-01-30T09:51:53.968Z,8.92
2023-01-30T09:52:53.979Z,10.33
2023-01-30T09:53:53.948Z,9.95
2023-01-30T09:54:53.987Z,10.49
2023-01-30T09:55:54.033Z,9.12
2023-01-30T09:56:54.017Z,8.26
2023-01-30T09:57:54.006Z,7.91
2023-01-30T09:58:54.109Z,8.26
2023-01-30T09:59:54.025Z,8.55
2023-01-30T10:00:54.093Z,8.20
2023-01-30T10:01:54.006Z,7.55
2023-01-30T10:02:54.108Z,7.81
2023-01-30T10:03:54.143Z,7.49
2023-01-30T10:05:01.239Z,7.67
2023-01-30T10:05:55.549Z,7.12
2023-01-30T10:06:54.155Z,7.32
2023-01-30T10:07:54.201Z,7.63
2023-01-30T10:08:54.148Z,7.72
2023-01-30T10:09:54.169Z,8.25
2023-01-30T10:11:08.865Z,7.26
2023-01-30T10:11:55.095Z,7.39
2023-01-30T10:12:54.100Z,8.13
2023-01-30T10:13:54.095Z,7.67
2023-01-30T10:14:54.079Z,7.76
2023-01-30T10:15:54.539Z,7.30
2023-01-30T10:16:54.068Z,7.38
2023-01-30T10:17:54.066Z,7.75
2023-01-30T10:18:54.095Z,7.18
2023-01-30T10:19:54.051Z,7.43
2023-01-30T10:20:54.065Z,7.03
2023-01-30T10:21:54.149Z,7.30
2023-01-30T10:22:54.075Z,7.86
2023-01-30T10:23:54.134Z,7.28
2023-01-30T10:24:54.047Z,7.56
2023-01-30T10:25:54.031Z,7.43
2023-01-30T10:26:54.042Z,7.87
2023-01-30T10:27:54.013Z,7.97
2023-01-30T10:29:06.196Z,7.28
2023-01-30T10:29:55.019Z,7.37
2023-01-30T10:30:54.123Z,7.13
2023-01-30T10:31:54.063Z,7.81
2023-01-30T10:32:53.973Z,6.68
2023-01-30T10:33:53.957Z,6.47
2023-01-30T10:34:54.543Z,6.83
2023-01-30T10:35:54.072Z,6.33
2023-01-30T10:36:53.974Z,6.31
2023-01-30T10:37:53.932Z,5.69
2023-01-30T10:42:53.969Z,6.29
2023-01-30T10:43:53.946Z,6.57
2023-01-30T10:44:53.993Z,7.15
2023-01-30T10:45:54.027Z,6.87
2023-01-30T10:46:54.109Z,6.55
2023-01-30T10:47:54.051Z,6.74
2023-01-30T10:48:54.085Z,7.16
2023-01-30T10:49:54.114Z,6.49
2023-01-30T10:50:54.550Z,6.30
2023-01-30T10:51:54.127Z,5.87
2023-01-30T10:52:54.121Z,7.25
2023-01-30T10:53:54.232Z,6.07
2023-01-30T10:54:54.148Z,6.92
2023-01-30T10:55:54.182Z,7.20
2023-01-30T10:56:54.220Z,7.34
2023-01-30T10:58:54.230Z,8.01
2023-01-30T10:59:54.293Z,7.03
2023-01-30T11:00:54.276Z,6.93
2023-01-30T11:01:54.401Z,7.32
2023-01-30T11:02:54.385Z,7.40
2023-01-30T11:03:54.363Z,7.89
2023-01-30T11:04:55.030Z,7.54
2023-01-30T11:05:54.452Z,7.74
2023-01-30T11:06:54.451Z,6.87
2023-01-30T11:07:55.071Z,8.34
2023-01-30T11:08:54.499Z,8.29
2023-01-30T11:09:54.607Z,7.81
2023-01-30T11:10:55.507Z,6.83
2023-01-30T11:11:54.512Z,6.93
2023-01-30T11:12:54.508Z,7.03
2023-01-30T11:13:54.513Z,6.55
2023-01-30T11:14:54.482Z,6.66
2023-01-30T11:15:54.478Z,8.17
2023-01-30T11:16:54.456Z,8.19
2023-01-30T11:17:55.671Z,7.61
2023-01-30T11:19:56.549Z,7.46
2023-01-30T11:20:54.730Z,7.54
2023-01-30T11:21:54.689Z,7.53
2023-01-30T11:22:54.749Z,6.78
2023-01-30T11:23:54.708Z,7.67
2023-01-30T11:24:54.663Z,8.02
2023-01-30T11:26:10.184Z,7.60
2023-01-30T11:26:55.663Z,8.33
2023-01-30T11:27:54.652Z,8.13
2023-01-30T11:28:54.628Z,8.46
2023-01-30T11:29:54.675Z,8.58
2023-01-30T11:30:55.069Z,7.34
2023-01-30T11:31:54.836Z,7.49
2023-01-30T11:32:54.843Z,8.46
2023-01-30T11:33:54.924Z,7.21
2023-01-30T11:34:54.940Z,7.77
2023-01-30T11:35:55.059Z,7.53
2023-01-30T11:36:54.938Z,8.56
2023-01-30T11:37:54.978Z,7.73
2023-01-30T11:38:55.035Z,7.73
2023-01-30T11:39:55.055Z,8.12
2023-01-30T11:40:55.535Z,7.24
2023-01-30T11:41:55.106Z,7.84
2023-01-30T11:42:56.059Z,7.93
2023-01-30T11:43:55.141Z,8.39
2023-01-30T11:45:00.698Z,7.86
2023-01-30T11:45:56.257Z,7.28
2023-01-30T11:46:55.230Z,7.02
2023-01-30T11:47:59.513Z,7.35
2023-01-30T11:49:01.513Z,7.29
2023-01-30T11:50:23.364Z,6.77
2023-01-30T11:50:56.159Z,7.03
2023-01-30T11:51:55.139Z,6.63
2023-01-30T11:52:55.140Z,6.38
2023-01-30T11:53:55.148Z,6.41
2023-01-30T11:54:55.085Z,6.78
2023-01-30T11:56:03.847Z,6.51
2023-01-30T11:56:56.135Z,6.10
2023-01-30T11:57:55.125Z,6.25
2023-01-30T11:58:55.155Z,6.84
2023-01-30T11:59:55.202Z,6.20
2023-01-30T12:00:55.252Z,6.10
2023-01-30T12:01:55.306Z,5.76
2023-01-30T12:02:55.292Z,6.11
2023-01-30T12:03:55.337Z,6.04
2023-01-30T12:04:55.308Z,5.82
2023-01-30T12:05:55.339Z,5.65
2023-01-30T12:06:55.348Z,5.10
2023-01-30T12:07:55.333Z,5.60
2023-01-30T12:08:55.403Z,6.20
2023-01-30T12:09:55.474Z,5.57
2023-01-30T12:10:55.561Z,5.72
2023-01-30T12:11:55.577Z,5.38
2023-01-30T12:12:55.602Z,4.98
2023-01-30T12:13:55.706Z,5.62
2023-01-30T12:14:55.709Z,5.88
2023-01-30T12:15:56.052Z,5.28
2023-01-30T12:16:55.787Z,5.67
2023-01-30T12:17:55.822Z,5.55
2023-01-30T12:18:57.177Z,5.70
2023-01-30T12:19:55.883Z,5.09
2023-01-30T12:22:55.973Z,5.11
2023-01-30T12:23:56.019Z,5.01
2023-01-30T12:24:56.015Z,5.40
2023-01-30T12:25:55.996Z,4.35
2023-01-30T12:27:56.097Z,5.27
2023-01-30T12:28:56.143Z,4.87
2023-01-30T12:29:56.115Z,5.06
2023-01-30T12:30:56.116Z,4.65
2023-01-30T12:31:56.602Z,5.55
2023-01-30T12:32:56.156Z,5.56
2023-01-30T12:33:56.179Z,5.07
2023-01-30T12:34:56.262Z,5.19
2023-01-30T12:35:56.263Z,4.99
2023-01-30T12:36:56.272Z,4.86
2023-01-30T12:37:56.278Z,4.02
2023-01-30T12:38:56.347Z,5.33
2023-01-30T12:39:56.395Z,5.22
2023-01-30T12:40:56.396Z,5.23
2023-01-30T12:41:56.406Z,4.91
2023-01-30T12:42:56.448Z,5.27
2023-01-30T12:43:56.459Z,5.11
2023-01-30T12:44:56.497Z,4.47
2023-01-30T12:45:56.564Z,4.40
2023-01-30T12:46:56.567Z,4.36
2023-01-30T12:47:56.577Z,4.84
2023-01-30T12:49:10.948Z,5.22
2023-01-30T12:49:57.586Z,4.27
2023-01-30T12:50:56.559Z,4.47
2023-01-30T12:51:56.572Z,5.23
2023-01-30T12:52:56.588Z,4.43
2023-01-30T12:53:56.566Z,4.52
2023-01-30T12:54:56.582Z,4.41
2023-01-30T12:55:56.549Z,4.17
2023-01-30T12:56:56.540Z,4.83
2023-01-30T12:57:56.554Z,4.94
2023-01-30T12:58:56.546Z,3.84
2023-01-30T12:59:56.524Z,5.04
2023-01-30T13:00:56.521Z,4.00
2023-01-30T13:01:56.561Z,4.77
2023-01-30T13:02:56.485Z,5.04
2023-01-30T13:03:56.469Z,4.62
2023-01-30T13:05:04.126Z,4.48
2023-01-30T13:05:57.469Z,4.20
2023-01-30T13:06:56.507Z,3.85
2023-01-30T13:07:56.478Z,4.35
2023-01-30T13:08:56.473Z,4.52
2023-01-30T13:09:56.487Z,4.48
2023-01-30T13:10:56.440Z,4.30
2023-01-30T13:11:56.451Z,3.62
2023-01-30T13:12:56.424Z,4.02
2023-01-30T13:13:56.447Z,3.80
2023-01-30T13:14:56.417Z,4.13
2023-01-30T13:15:56.510Z,3.83
2023-01-30T13:16:56.420Z,3.77
2023-01-30T13:17:56.377Z,3.57
2023-01-30T13:18:56.378Z,4.46
2023-01-30T13:19:56.397Z,4.16
2023-01-30T13:20:56.421Z,3.56
2023-01-30T13:21:56.400Z,3.82
2023-01-30T13:22:56.361Z,3.56
2023-01-30T13:23:56.388Z,3.75
2023-01-30T13:24:56.392Z,4.07
2023-01-30T13:25:56.393Z,3.70
2023-01-30T13:26:56.503Z,3.58
2023-01-30T13:27:56.351Z,3.42
2023-01-30T13:28:56.358Z,3.83
2023-01-30T13:29:56.332Z,3.72
2023-01-30T13:30:56.346Z,4.08
2023-01-30T13:31:56.427Z,3.15
2023-01-30T13:32:56.339Z,3.60
2023-01-30T13:33:56.436Z,3.63
2023-01-30T13:34:56.457Z,3.30
2023-01-30T13:35:56.460Z,3.43
2023-01-30T13:36:56.469Z,3.56
2023-01-30T13:37:56.464Z,3.77
2023-01-30T13:38:56.485Z,3.41
2023-01-30T13:39:56.448Z,3.55
2023-01-30T13:40:56.444Z,3.50
2023-01-30T13:41:56.496Z,4.37
2023-01-30T13:42:56.453Z,3.15
2023-01-30T13:43:56.496Z,4.09
2023-01-30T13:44:56.509Z,3.38
2023-01-30T13:45:56.533Z,3.48
2023-01-30T13:46:56.617Z,3.32
2023-01-30T13:47:56.547Z,3.57
2023-01-30T13:48:56.553Z,3.45
2023-01-30T13:49:56.554Z,3.31
2023-01-30T13:50:56.581Z,4.06
2023-01-30T13:51:56.573Z,3.26
2023-01-30T13:52:56.580Z,3.08
2023-01-30T13:53:56.568Z,3.50
2023-01-30T13:54:56.679Z,2.85
2023-01-30T13:55:56.595Z,3.98
2023-01-30T13:56:56.599Z,3.99
2023-01-30T13:57:56.647Z,3.05
2023-01-30T13:58:56.654Z,3.24
2023-01-30T13:59:56.653Z,3.21
2023-01-30T14:00:56.709Z,3.34
2023-01-30T14:01:56.646Z,3.23
2023-01-30T14:02:56.655Z,3.12
2023-01-30T14:03:56.701Z,3.22
2023-01-30T14:04:56.673Z,2.90
2023-01-30T14:05:56.717Z,3.09
2023-01-30T14:06:56.709Z,3.06
2023-01-30T14:07:56.709Z,3.72
2023-01-30T14:08:56.692Z,2.82
2023-01-30T14:09:56.712Z,3.27
2023-01-30T14:10:56.742Z,3.17
2023-01-30T14:11:56.719Z,3.25
2023-01-30T14:12:56.773Z,3.91
2023-01-30T14:13:56.815Z,3.39
2023-01-30T14:14:56.777Z,2.82
2023-01-30T14:15:56.765Z,3.12
2023-01-30T14:16:56.763Z,3.12
2023-01-30T14:17:56.804Z,3.63
2023-01-30T14:18:56.789Z,2.87
2023-01-30T14:19:56.773Z,3.53
2023-01-30T14:20:56.784Z,2.90
2023-01-30T14:21:56.794Z,3.40
2023-01-30T14:22:56.802Z,3.62
2023-01-30T14:23:56.834Z,4.13
2023-01-30T14:24:56.923Z,4.67
2023-01-30T14:25:56.904Z,3.50
2023-01-30T14:26:56.935Z,3.36
2023-01-30T14:27:56.960Z,3.40
2023-01-30T14:28:56.971Z,3.59
2023-01-30T14:29:56.972Z,3.44
2023-01-30T14:30:56.968Z,3.84
2023-01-30T14:31:57.160Z,3.54
2023-01-30T14:32:56.997Z,2.92
2023-01-30T14:33:56.986Z,2.65
2023-01-30T14:34:56.998Z,3.09
2023-01-30T14:35:57.004Z,3.04
2023-01-30T14:36:57.009Z,3.08
2023-01-30T14:37:57.034Z,3.57
2023-01-30T14:38:57.047Z,3.17
2023-01-30T14:39:57.039Z,3.10
2023-01-30T14:40:57.085Z,2.69
2023-01-30T14:41:57.152Z,2.81
2023-01-30T14:42:57.216Z,2.50
2023-01-30T14:43:57.275Z,3.08
2023-01-30T14:44:57.345Z,2.88
2023-01-30T14:45:57.389Z,2.72
2023-01-30T14:46:58.585Z,2.85
2023-01-30T14:47:57.604Z,3.06